sensor_id;sensor_type;location;lat;lon;timestamp;P1;durP1;ratioP1;P2;durP2;ratioP2
77984;SDS011;67177;47.240;-1.546;2023-03-16T00:00:45;4.95;;;1.40;;
77984;SDS011;67177;47.240;-1.546;2023-03-16T00:03:12;6.28;;;1.52;;
77984;SDS011;67177;47.240;-1.546;2023-03-16T00:05:43;5.17;;;1.33;;
77984;SDS011;67177;47.240;-1.546;2023-03-16T00:08:17;5.70;;;1.52;;
77984;SDS011;67177;47.240;-1.546;2023-03-16T00:10:46;5.20;;;1.50;;
77984;SDS011;67177;47.240;-1.546;2023-03-16T00:13:13;5.38;;;1.70;;
77984;SDS011;67177;47.240;-1.546;2023-03-16T00:15:55;4.85;;;1.70;;
77984;SDS011;67177;47.240;-1.546;2023-03-16T00:18:23;6.00;;;1.70;;
77984;SDS011;67177;47.240;-1.546;2023-03-16T00:20:52;5.40;;;1.45;;
77984;SDS011;67177;47.240;-1.546;2023-03-16T00:23:19;5.30;;;1.60;;
77984;SDS011;67177;47.240;-1.546;2023-03-16T00:25:51;4.97;;;1.70;;
77984;SDS011;67177;47.240;-1.546;2023-03-16T00:28:21;5.03;;;1.60;;
77984;SDS011;67177;47.240;-1.546;2023-03-16T00:30:47;4.80;;;1.73;;
77984;SDS011;67177;47.240;-1.546;2023-03-16T00:33:13;4.60;;;1.50;;
77984;SDS011;67177;47.240;-1.546;2023-03-16T00:35:39;5.00;;;1.90;;
77984;SDS011;67177;47.240;-1.546;2023-03-16T00:38:17;3.93;;;1.40;;
77984;SDS011;67177;47.240;-1.546;2023-03-16T00:40:43;5.82;;;1.70;;
77984;SDS011;67177;47.240;-1.546;2023-03-16T00:43:09;4.82;;;1.40;;
77984;SDS011;67177;47.240;-1.546;2023-03-16T00:45:36;4.55;;;1.55;;
77984;SDS011;67177;47.240;-1.546;2023-03-16T00:48:01;4.70;;;1.57;;
77984;SDS011;67177;47.240;-1.546;2023-03-16T00:50:27;5.57;;;1.67;;
77984;SDS011;67177;47.240;-1.546;2023-03-16T00:52:53;4.50;;;1.83;;
77984;SDS011;67177;47.240;-1.546;2023-03-16T00:55:19;5.38;;;1.60;;
77984;SDS011;67177;47.240;-1.546;2023-03-16T00:57:45;5.88;;;1.90;;
77984;SDS011;67177;47.240;-1.546;2023-03-16T01:00:11;5.93;;;1.97;;
77984;SDS011;67177;47.240;-1.546;2023-03-16T01:02:40;5.90;;;2.10;;
77984;SDS011;67177;47.240;-1.546;2023-03-16T01:05:06;4.53;;;1.70;;
77984;SDS011;67177;47.240;-1.546;2023-03-16T01:07:33;5.63;;;2.10;;
77984;SDS011;67177;47.240;-1.546;2023-03-16T01:10:00;6.03;;;2.00;;
77984;SDS011;67177;47.240;-1.546;2023-03-16T01:12:26;5.30;;;1.77;;
77984;SDS011;67177;47.240;-1.546;2023-03-16T01:14:52;5.00;;;1.92;;
77984;SDS011;67177;47.240;-1.546;2023-03-16T01:17:19;5.20;;;2.10;;
77984;SDS011;67177;47.240;-1.546;2023-03-16T01:19:46;5.75;;;2.20;;
77984;SDS011;67177;47.240;-1.546;2023-03-16T01:22:12;5.22;;;2.00;;
77984;SDS011;67177;47.240;-1.546;2023-03-16T01:24:39;4.63;;;1.73;;
77984;SDS011;67177;47.240;-1.546;2023-03-16T01:27:06;4.38;;;1.60;;
77984;SDS011;67177;47.240;-1.546;2023-03-16T01:29:32;5.03;;;1.57;;
77984;SDS011;67177;47.240;-1.546;2023-03-16T01:31:58;4.53;;;1.52;;
77984;SDS011;67177;47.240;-1.546;2023-03-16T01:34:24;4.65;;;1.50;;
77984;SDS011;67177;47.240;-1.546;2023-03-16T01:36:50;4.13;;;1.43;;
77984;SDS011;67177;47.240;-1.546;2023-03-16T01:39:16;4.55;;;1.25;;
77984;SDS011;67177;47.240;-1.546;2023-03-16T01:41:42;6.80;;;1.67;;
77984;SDS011;67177;47.240;-1.546;2023-03-16T01:44:12;4.85;;;1.65;;
77984;SDS011;67177;47.240;-1.546;2023-03-16T01:46:39;5.07;;;1.90;;
77984;SDS011;67177;47.240;-1.546;2023-03-16T01:49:11;4.50;;;1.45;;
77984;SDS011;67177;47.240;-1.546;2023-03-16T01:54:23;5.50;;;1.80;;
77984;SDS011;67177;47.240;-1.546;2023-03-16T01:59:22;4.95;;;1.70;;
77984;SDS011;67177;47.240;-1.546;2023-03-16T02:01:51;4.72;;;1.63;;
77984;SDS011;67177;47.240;-1.546;2023-03-16T02:04:20;4.95;;;1.80;;
77984;SDS011;67177;47.240;-1.546;2023-03-16T02:06:53;5.47;;;1.73;;
77984;SDS011;67177;47.240;-1.546;2023-03-16T02:09:20;4.13;;;1.50;;
77984;SDS011;67177;47.240;-1.546;2023-03-16T02:11:48;5.60;;;1.85;;
77984;SDS011;67177;47.240;-1.546;2023-03-16T02:14:15;5.32;;;1.80;;
77984;SDS011;67177;47.240;-1.546;2023-03-16T02:16:40;4.77;;;1.67;;
77984;SDS011;67177;47.240;-1.546;2023-03-16T02:19:08;4.80;;;1.65;;
77984;SDS011;67177;47.240;-1.546;2023-03-16T02:21:49;4.75;;;1.50;;
77984;SDS011;67177;47.240;-1.546;2023-03-16T02:24:26;4.40;;;1.42;;
77984;SDS011;67177;47.240;-1.546;2023-03-16T02:26:53;4.50;;;1.40;;
77984;SDS011;67177;47.240;-1.546;2023-03-16T02:32:23;5.63;;;1.80;;
77984;SDS011;67177;47.240;-1.546;2023-03-16T02:34:50;4.57;;;1.60;;
77984;SDS011;67177;47.240;-1.546;2023-03-16T02:37:16;4.37;;;1.50;;
77984;SDS011;67177;47.240;-1.546;2023-03-16T02:39:42;5.65;;;1.92;;
77984;SDS011;67177;47.240;-1.546;2023-03-16T02:42:09;5.90;;;2.00;;
77984;SDS011;67177;47.240;-1.546;2023-03-16T02:44:39;4.10;;;1.60;;
77984;SDS011;67177;47.240;-1.546;2023-03-16T02:47:12;5.88;;;1.85;;
77984;SDS011;67177;47.240;-1.546;2023-03-16T02:49:46;5.47;;;1.90;;
77984;SDS011;67177;47.240;-1.546;2023-03-16T02:52:11;4.88;;;1.70;;
77984;SDS011;67177;47.240;-1.546;2023-03-16T02:54:37;5.43;;;1.88;;
77984;SDS011;67177;47.240;-1.546;2023-03-16T02:57:03;6.27;;;2.17;;
77984;SDS011;67177;47.240;-1.546;2023-03-16T02:59:29;5.47;;;1.85;;
77984;SDS011;67177;47.240;-1.546;2023-03-16T03:01:55;5.43;;;2.00;;
77984;SDS011;67177;47.240;-1.546;2023-03-16T03:04:21;4.82;;;1.67;;
77984;SDS011;67177;47.240;-1.546;2023-03-16T03:06:48;4.60;;;1.60;;
77984;SDS011;67177;47.240;-1.546;2023-03-16T03:09:15;6.13;;;1.83;;
77984;SDS011;67177;47.240;-1.546;2023-03-16T03:11:42;5.05;;;2.22;;
77984;SDS011;67177;47.240;-1.546;2023-03-16T03:14:09;5.07;;;1.67;;
77984;SDS011;67177;47.240;-1.546;2023-03-16T03:16:34;4.28;;;1.58;;
77984;SDS011;67177;47.240;-1.546;2023-03-16T03:19:00;6.18;;;1.52;;
77984;SDS011;67177;47.240;-1.546;2023-03-16T03:21:26;4.50;;;1.50;;
77984;SDS011;67177;47.240;-1.546;2023-03-16T03:23:53;4.90;;;1.40;;
77984;SDS011;67177;47.240;-1.546;2023-03-16T03:26:18;4.60;;;1.60;;
77984;SDS011;67177;47.240;-1.546;2023-03-16T03:28:45;6.00;;;1.70;;
77984;SDS011;67177;47.240;-1.546;2023-03-16T03:31:14;4.07;;;1.52;;
77984;SDS011;67177;47.240;-1.546;2023-03-16T03:33:41;4.53;;;1.60;;
77984;SDS011;67177;47.240;-1.546;2023-03-16T03:36:08;5.10;;;1.83;;
77984;SDS011;67177;47.240;-1.546;2023-03-16T03:38:35;5.37;;;1.70;;
77984;SDS011;67177;47.240;-1.546;2023-03-16T03:41:01;6.05;;;1.60;;
77984;SDS011;67177;47.240;-1.546;2023-03-16T03:43:28;4.57;;;1.52;;
77984;SDS011;67177;47.240;-1.546;2023-03-16T03:45:54;4.60;;;1.40;;
77984;SDS011;67177;47.240;-1.546;2023-03-16T03:48:21;4.67;;;1.63;;
77984;SDS011;67177;47.240;-1.546;2023-03-16T03:50:47;3.83;;;1.40;;
77984;SDS011;67177;47.240;-1.546;2023-03-16T03:53:13;3.97;;;1.30;;
77984;SDS011;67177;47.240;-1.546;2023-03-16T03:55:39;3.87;;;1.27;;
77984;SDS011;67177;47.240;-1.546;2023-03-16T03:58:04;4.63;;;1.42;;
77984;SDS011;67177;47.240;-1.546;2023-03-16T04:00:30;4.50;;;1.40;;
77984;SDS011;67177;47.240;-1.546;2023-03-16T04:02:56;4.63;;;1.55;;
77984;SDS011;67177;47.240;-1.546;2023-03-16T04:05:22;5.57;;;1.50;;
77984;SDS011;67177;47.240;-1.546;2023-03-16T04:07:51;5.10;;;1.38;;
77984;SDS011;67177;47.240;-1.546;2023-03-16T04:10:24;4.30;;;1.40;;
77984;SDS011;67177;47.240;-1.546;2023-03-16T04:12:51;4.50;;;1.40;;
77984;SDS011;67177;47.240;-1.546;2023-03-16T04:15:17;4.77;;;1.33;;
77984;SDS011;67177;47.240;-1.546;2023-03-16T04:17:43;3.85;;;1.30;;
77984;SDS011;67177;47.240;-1.546;2023-03-16T04:20:09;4.00;;;1.27;;
77984;SDS011;67177;47.240;-1.546;2023-03-16T04:22:39;3.78;;;1.20;;
77984;SDS011;67177;47.240;-1.546;2023-03-16T04:25:07;4.95;;;1.27;;
77984;SDS011;67177;47.240;-1.546;2023-03-16T04:27:33;4.60;;;1.30;;
77984;SDS011;67177;47.240;-1.546;2023-03-16T04:30:02;4.50;;;1.30;;
77984;SDS011;67177;47.240;-1.546;2023-03-16T04:32:32;4.97;;;1.45;;
77984;SDS011;67177;47.240;-1.546;2023-03-16T04:34:58;4.82;;;1.35;;
77984;SDS011;67177;47.240;-1.546;2023-03-16T04:37:24;3.75;;;1.10;;
77984;SDS011;67177;47.240;-1.546;2023-03-16T04:39:49;3.85;;;1.15;;
77984;SDS011;67177;47.240;-1.546;2023-03-16T04:42:15;3.83;;;1.13;;
77984;SDS011;67177;47.240;-1.546;2023-03-16T04:44:41;3.60;;;1.03;;
77984;SDS011;67177;47.240;-1.546;2023-03-16T04:47:10;3.65;;;1.13;;
77984;SDS011;67177;47.240;-1.546;2023-03-16T04:49:36;4.65;;;1.20;;
77984;SDS011;67177;47.240;-1.546;2023-03-16T04:52:02;4.17;;;1.20;;
77984;SDS011;67177;47.240;-1.546;2023-03-16T04:54:29;3.65;;;1.10;;
77984;SDS011;67177;47.240;-1.546;2023-03-16T04:56:55;3.00;;;0.90;;
77984;SDS011;67177;47.240;-1.546;2023-03-16T04:59:21;4.50;;;1.10;;
77984;SDS011;67177;47.240;-1.546;2023-03-16T05:01:47;3.58;;;1.00;;
77984;SDS011;67177;47.240;-1.546;2023-03-16T05:04:13;3.53;;;0.98;;
77984;SDS011;67177;47.240;-1.546;2023-03-16T05:06:38;3.40;;;1.00;;
77984;SDS011;67177;47.240;-1.546;2023-03-16T05:09:05;4.10;;;1.08;;
77984;SDS011;67177;47.240;-1.546;2023-03-16T05:11:32;3.92;;;1.00;;
77984;SDS011;67177;47.240;-1.546;2023-03-16T05:13:58;4.15;;;1.10;;
77984;SDS011;67177;47.240;-1.546;2023-03-16T05:16:26;3.27;;;0.93;;
77984;SDS011;67177;47.240;-1.546;2023-03-16T05:18:52;5.05;;;1.30;;
77984;SDS011;67177;47.240;-1.546;2023-03-16T05:21:17;3.75;;;0.98;;
77984;SDS011;67177;47.240;-1.546;2023-03-16T05:23:44;3.33;;;1.00;;
77984;SDS011;67177;47.240;-1.546;2023-03-16T05:26:10;3.95;;;1.30;;
77984;SDS011;67177;47.240;-1.546;2023-03-16T05:28:37;3.85;;;1.10;;
77984;SDS011;67177;47.240;-1.546;2023-03-16T05:31:03;3.47;;;1.13;;
77984;SDS011;67177;47.240;-1.546;2023-03-16T05:33:29;3.60;;;1.20;;
77984;SDS011;67177;47.240;-1.546;2023-03-16T05:35:54;3.28;;;1.00;;
77984;SDS011;67177;47.240;-1.546;2023-03-16T05:38:22;3.58;;;1.00;;
77984;SDS011;67177;47.240;-1.546;2023-03-16T05:40:48;2.63;;;0.70;;
77984;SDS011;67177;47.240;-1.546;2023-03-16T05:43:19;3.30;;;0.70;;
77984;SDS011;67177;47.240;-1.546;2023-03-16T05:45:45;2.83;;;0.80;;
77984;SDS011;67177;47.240;-1.546;2023-03-16T05:48:12;2.92;;;0.80;;
77984;SDS011;67177;47.240;-1.546;2023-03-16T05:50:39;4.18;;;0.80;;
77984;SDS011;67177;47.240;-1.546;2023-03-16T05:53:05;4.00;;;1.00;;
77984;SDS011;67177;47.240;-1.546;2023-03-16T05:55:31;3.63;;;1.05;;
77984;SDS011;67177;47.240;-1.546;2023-03-16T05:57:57;3.42;;;0.98;;
77984;SDS011;67177;47.240;-1.546;2023-03-16T06:00:23;4.20;;;1.20;;
77984;SDS011;67177;47.240;-1.546;2023-03-16T06:02:50;3.28;;;0.95;;
77984;SDS011;67177;47.240;-1.546;2023-03-16T06:05:16;3.40;;;1.05;;
77984;SDS011;67177;47.240;-1.546;2023-03-16T06:07:43;3.70;;;1.00;;
77984;SDS011;67177;47.240;-1.546;2023-03-16T06:10:09;3.40;;;1.00;;
77984;SDS011;67177;47.240;-1.546;2023-03-16T06:12:36;3.97;;;1.08;;
77984;SDS011;67177;47.240;-1.546;2023-03-16T06:15:03;3.35;;;0.90;;
77984;SDS011;67177;47.240;-1.546;2023-03-16T06:17:32;3.70;;;1.13;;
77984;SDS011;67177;47.240;-1.546;2023-03-16T06:19:59;4.17;;;1.17;;
77984;SDS011;67177;47.240;-1.546;2023-03-16T06:22:25;4.78;;;1.58;;
77984;SDS011;67177;47.240;-1.546;2023-03-16T06:24:51;5.40;;;1.65;;
77984;SDS011;67177;47.240;-1.546;2023-03-16T06:27:17;5.53;;;1.60;;
77984;SDS011;67177;47.240;-1.546;2023-03-16T06:29:44;5.30;;;1.65;;
77984;SDS011;67177;47.240;-1.546;2023-03-16T06:32:10;5.32;;;1.42;;
77984;SDS011;67177;47.240;-1.546;2023-03-16T06:34:37;5.68;;;1.70;;
77984;SDS011;67177;47.240;-1.546;2023-03-16T06:37:02;4.80;;;1.50;;
77984;SDS011;67177;47.240;-1.546;2023-03-16T06:39:28;5.47;;;1.58;;
77984;SDS011;67177;47.240;-1.546;2023-03-16T06:41:55;4.88;;;1.52;;
77984;SDS011;67177;47.240;-1.546;2023-03-16T06:44:21;5.27;;;1.30;;
77984;SDS011;67177;47.240;-1.546;2023-03-16T06:46:47;4.53;;;1.50;;
77984;SDS011;67177;47.240;-1.546;2023-03-16T06:49:13;5.53;;;1.75;;
77984;SDS011;67177;47.240;-1.546;2023-03-16T06:51:39;4.70;;;1.63;;
77984;SDS011;67177;47.240;-1.546;2023-03-16T06:54:05;5.50;;;1.65;;
77984;SDS011;67177;47.240;-1.546;2023-03-16T06:56:31;6.07;;;1.60;;
77984;SDS011;67177;47.240;-1.546;2023-03-16T06:58:57;5.15;;;1.85;;
77984;SDS011;67177;47.240;-1.546;2023-03-16T07:01:23;4.68;;;1.55;;
77984;SDS011;67177;47.240;-1.546;2023-03-16T07:03:49;5.53;;;1.30;;
77984;SDS011;67177;47.240;-1.546;2023-03-16T07:06:15;4.80;;;1.20;;
77984;SDS011;67177;47.240;-1.546;2023-03-16T07:08:41;4.80;;;1.25;;
77984;SDS011;67177;47.240;-1.546;2023-03-16T07:11:07;3.77;;;1.20;;
77984;SDS011;67177;47.240;-1.546;2023-03-16T07:13:33;5.00;;;1.25;;
77984;SDS011;67177;47.240;-1.546;2023-03-16T07:15:59;4.90;;;1.67;;
77984;SDS011;67177;47.240;-1.546;2023-03-16T07:18:25;4.70;;;1.50;;
77984;SDS011;67177;47.240;-1.546;2023-03-16T07:20:54;4.40;;;1.20;;
77984;SDS011;67177;47.240;-1.546;2023-03-16T07:23:20;4.82;;;1.58;;
77984;SDS011;67177;47.240;-1.546;2023-03-16T07:25:46;4.70;;;1.30;;
77984;SDS011;67177;47.240;-1.546;2023-03-16T07:28:12;5.63;;;1.47;;
77984;SDS011;67177;47.240;-1.546;2023-03-16T07:30:37;3.85;;;1.20;;
77984;SDS011;67177;47.240;-1.546;2023-03-16T07:33:03;3.60;;;1.10;;
77984;SDS011;67177;47.240;-1.546;2023-03-16T07:35:29;4.25;;;1.23;;
77984;SDS011;67177;47.240;-1.546;2023-03-16T07:37:55;4.38;;;1.40;;
77984;SDS011;67177;47.240;-1.546;2023-03-16T07:40:21;4.37;;;1.20;;
77984;SDS011;67177;47.240;-1.546;2023-03-16T07:42:47;3.72;;;1.15;;
77984;SDS011;67177;47.240;-1.546;2023-03-16T07:45:13;4.50;;;1.17;;
77984;SDS011;67177;47.240;-1.546;2023-03-16T07:47:39;4.50;;;1.23;;
77984;SDS011;67177;47.240;-1.546;2023-03-16T07:50:06;4.10;;;1.15;;
77984;SDS011;67177;47.240;-1.546;2023-03-16T07:52:32;4.07;;;1.25;;
77984;SDS011;67177;47.240;-1.546;2023-03-16T07:54:58;4.17;;;1.20;;
77984;SDS011;67177;47.240;-1.546;2023-03-16T07:57:24;4.07;;;1.30;;
77984;SDS011;67177;47.240;-1.546;2023-03-16T07:59:50;3.63;;;1.13;;
77984;SDS011;67177;47.240;-1.546;2023-03-16T08:02:16;4.15;;;1.13;;
77984;SDS011;67177;47.240;-1.546;2023-03-16T08:04:43;3.60;;;1.10;;
77984;SDS011;67177;47.240;-1.546;2023-03-16T08:07:09;3.87;;;1.10;;
77984;SDS011;67177;47.240;-1.546;2023-03-16T08:09:36;4.05;;;1.10;;
77984;SDS011;67177;47.240;-1.546;2023-03-16T08:12:02;4.40;;;1.10;;
77984;SDS011;67177;47.240;-1.546;2023-03-16T08:14:29;2.90;;;0.90;;
77984;SDS011;67177;47.240;-1.546;2023-03-16T08:16:58;3.22;;;0.82;;
77984;SDS011;67177;47.240;-1.546;2023-03-16T08:19:24;4.28;;;2.33;;
77984;SDS011;67177;47.240;-1.546;2023-03-16T08:21:50;2.90;;;0.80;;
77984;SDS011;67177;47.240;-1.546;2023-03-16T08:24:16;3.15;;;0.80;;
77984;SDS011;67177;47.240;-1.546;2023-03-16T08:26:41;3.38;;;0.90;;
77984;SDS011;67177;47.240;-1.546;2023-03-16T08:29:07;2.83;;;0.70;;
77984;SDS011;67177;47.240;-1.546;2023-03-16T08:31:33;2.83;;;0.80;;
77984;SDS011;67177;47.240;-1.546;2023-03-16T08:33:59;3.80;;;0.90;;
77984;SDS011;67177;47.240;-1.546;2023-03-16T08:36:25;3.88;;;0.95;;
77984;SDS011;67177;47.240;-1.546;2023-03-16T08:38:53;2.85;;;0.80;;
77984;SDS011;67177;47.240;-1.546;2023-03-16T08:41:19;2.27;;;0.70;;
77984;SDS011;67177;47.240;-1.546;2023-03-16T08:43:45;2.90;;;0.80;;
77984;SDS011;67177;47.240;-1.546;2023-03-16T08:46:11;3.05;;;0.73;;
77984;SDS011;67177;47.240;-1.546;2023-03-16T08:48:38;3.85;;;0.90;;
77984;SDS011;67177;47.240;-1.546;2023-03-16T08:51:05;2.83;;;0.93;;
77984;SDS011;67177;47.240;-1.546;2023-03-16T08:53:32;2.83;;;0.80;;
77984;SDS011;67177;47.240;-1.546;2023-03-16T08:56:07;3.03;;;0.90;;
77984;SDS011;67177;47.240;-1.546;2023-03-16T08:58:35;2.80;;;0.88;;
77984;SDS011;67177;47.240;-1.546;2023-03-16T09:01:01;2.67;;;0.68;;
77984;SDS011;67177;47.240;-1.546;2023-03-16T09:03:29;2.50;;;0.67;;
77984;SDS011;67177;47.240;-1.546;2023-03-16T09:05:59;2.72;;;0.70;;
77984;SDS011;67177;47.240;-1.546;2023-03-16T09:08:27;2.83;;;0.75;;
77984;SDS011;67177;47.240;-1.546;2023-03-16T09:11:00;2.88;;;0.70;;
77984;SDS011;67177;47.240;-1.546;2023-03-16T09:13:28;1.70;;;0.50;;
77984;SDS011;67177;47.240;-1.546;2023-03-16T09:15:54;3.23;;;0.70;;
77984;SDS011;67177;47.240;-1.546;2023-03-16T09:18:21;2.45;;;0.60;;
77984;SDS011;67177;47.240;-1.546;2023-03-16T09:20:48;2.25;;;0.70;;
77984;SDS011;67177;47.240;-1.546;2023-03-16T09:23:14;3.53;;;0.70;;
77984;SDS011;67177;47.240;-1.546;2023-03-16T09:25:40;2.53;;;0.70;;
77984;SDS011;67177;47.240;-1.546;2023-03-16T09:28:05;2.92;;;0.70;;
77984;SDS011;67177;47.240;-1.546;2023-03-16T09:30:31;2.67;;;0.70;;
77984;SDS011;67177;47.240;-1.546;2023-03-16T09:32:57;3.42;;;0.90;;
77984;SDS011;67177;47.240;-1.546;2023-03-16T09:35:23;2.97;;;0.70;;
77984;SDS011;67177;47.240;-1.546;2023-03-16T09:37:50;2.92;;;0.85;;
77984;SDS011;67177;47.240;-1.546;2023-03-16T09:40:21;4.20;;;0.73;;
77984;SDS011;67177;47.240;-1.546;2023-03-16T09:43:06;2.45;;;0.60;;
77984;SDS011;67177;47.240;-1.546;2023-03-16T09:48:35;2.80;;;0.60;;
77984;SDS011;67177;47.240;-1.546;2023-03-16T09:51:03;2.35;;;0.70;;
77984;SDS011;67177;47.240;-1.546;2023-03-16T09:56:04;2.75;;;0.70;;
77984;SDS011;67177;47.240;-1.546;2023-03-16T09:58:41;2.67;;;0.60;;
77984;SDS011;67177;47.240;-1.546;2023-03-16T10:01:20;2.95;;;0.73;;
77984;SDS011;67177;47.240;-1.546;2023-03-16T10:06:28;3.60;;;0.70;;
77984;SDS011;67177;47.240;-1.546;2023-03-16T10:11:57;2.38;;;0.70;;
77984;SDS011;67177;47.240;-1.546;2023-03-16T10:17:00;2.22;;;0.65;;
77984;SDS011;67177;47.240;-1.546;2023-03-16T10:19:38;3.47;;;0.67;;
77984;SDS011;67177;47.240;-1.546;2023-03-16T10:22:17;3.80;;;0.80;;
77984;SDS011;67177;47.240;-1.546;2023-03-16T10:27:36;2.28;;;0.65;;
77984;SDS011;67177;47.240;-1.546;2023-03-16T10:30:13;2.92;;;0.70;;
77984;SDS011;67177;47.240;-1.546;2023-03-16T10:32:52;2.43;;;0.67;;
77984;SDS011;67177;47.240;-1.546;2023-03-16T10:37:44;2.40;;;0.60;;
77984;SDS011;67177;47.240;-1.546;2023-03-16T10:40:11;2.90;;;0.65;;
77984;SDS011;67177;47.240;-1.546;2023-03-16T10:42:37;2.27;;;0.60;;
77984;SDS011;67177;47.240;-1.546;2023-03-16T10:45:03;2.03;;;0.70;;
77984;SDS011;67177;47.240;-1.546;2023-03-16T10:47:31;2.47;;;0.60;;
77984;SDS011;67177;47.240;-1.546;2023-03-16T10:49:57;2.40;;;0.60;;
77984;SDS011;67177;47.240;-1.546;2023-03-16T10:52:38;2.87;;;0.70;;
77984;SDS011;67177;47.240;-1.546;2023-03-16T10:55:15;2.67;;;0.80;;
77984;SDS011;67177;47.240;-1.546;2023-03-16T10:57:54;3.00;;;0.77;;
77984;SDS011;67177;47.240;-1.546;2023-03-16T11:00:33;4.15;;;0.80;;
77984;SDS011;67177;47.240;-1.546;2023-03-16T11:03:00;2.80;;;0.68;;
77984;SDS011;67177;47.240;-1.546;2023-03-16T11:05:37;2.77;;;0.63;;
77984;SDS011;67177;47.240;-1.546;2023-03-16T11:10:39;2.83;;;0.80;;
77984;SDS011;67177;47.240;-1.546;2023-03-16T11:15:54;3.35;;;0.70;;
77984;SDS011;67177;47.240;-1.546;2023-03-16T11:20:54;2.67;;;0.70;;
77984;SDS011;67177;47.240;-1.546;2023-03-16T11:23:27;2.25;;;0.60;;
77984;SDS011;67177;47.240;-1.546;2023-03-16T11:25:57;2.83;;;0.73;;
77984;SDS011;67177;47.240;-1.546;2023-03-16T11:28:36;3.33;;;0.80;;
77984;SDS011;67177;47.240;-1.546;2023-03-16T11:31:09;2.60;;;0.70;;
77984;SDS011;67177;47.240;-1.546;2023-03-16T11:33:56;2.40;;;0.70;;
77984;SDS011;67177;47.240;-1.546;2023-03-16T11:37:24;3.00;;;0.80;;
77984;SDS011;67177;47.240;-1.546;2023-03-16T11:39:28;3.50;;;0.80;;
77984;SDS011;67177;47.240;-1.546;2023-03-16T11:47:54;2.53;;;0.73;;
77984;SDS011;67177;47.240;-1.546;2023-03-16T11:50:33;2.42;;;0.70;;
77984;SDS011;67177;47.240;-1.546;2023-03-16T11:56:06;2.38;;;0.70;;
77984;SDS011;67177;47.240;-1.546;2023-03-16T12:01:28;2.33;;;0.60;;
77984;SDS011;67177;47.240;-1.546;2023-03-16T12:04:13;2.67;;;0.60;;
77984;SDS011;67177;47.240;-1.546;2023-03-16T12:12:42;2.95;;;0.80;;
77984;SDS011;67177;47.240;-1.546;2023-03-16T12:15:36;3.25;;;0.77;;
77984;SDS011;67177;47.240;-1.546;2023-03-16T12:20:56;2.50;;;0.70;;
77984;SDS011;67177;47.240;-1.546;2023-03-16T12:23:37;3.75;;;0.80;;
77984;SDS011;67177;47.240;-1.546;2023-03-16T12:26:17;3.05;;;0.80;;
77984;SDS011;67177;47.240;-1.546;2023-03-16T12:28:46;2.17;;;0.70;;
77984;SDS011;67177;47.240;-1.546;2023-03-16T12:31:23;3.40;;;1.00;;
77984;SDS011;67177;47.240;-1.546;2023-03-16T12:39:06;3.03;;;0.80;;
77984;SDS011;67177;47.240;-1.546;2023-03-16T12:44:27;4.93;;;1.00;;
77984;SDS011;67177;47.240;-1.546;2023-03-16T12:47:16;2.63;;;0.70;;
77984;SDS011;67177;47.240;-1.546;2023-03-16T12:49:43;3.88;;;0.90;;
77984;SDS011;67177;47.240;-1.546;2023-03-16T12:52:10;3.70;;;0.80;;
77984;SDS011;67177;47.240;-1.546;2023-03-16T12:54:48;3.75;;;0.90;;
77984;SDS011;67177;47.240;-1.546;2023-03-16T12:57:16;2.38;;;0.70;;
77984;SDS011;67177;47.240;-1.546;2023-03-16T12:59:44;3.27;;;0.83;;
77984;SDS011;67177;47.240;-1.546;2023-03-16T13:02:15;3.17;;;0.90;;
77984;SDS011;67177;47.240;-1.546;2023-03-16T13:04:53;3.28;;;0.90;;
77984;SDS011;67177;47.240;-1.546;2023-03-16T13:07:23;3.78;;;0.80;;
77984;SDS011;67177;47.240;-1.546;2023-03-16T13:10:06;2.88;;;0.70;;
77984;SDS011;67177;47.240;-1.546;2023-03-16T13:12:35;2.77;;;0.70;;
77984;SDS011;67177;47.240;-1.546;2023-03-16T13:15:14;3.35;;;0.70;;
77984;SDS011;67177;47.240;-1.546;2023-03-16T13:18:02;2.28;;;0.65;;
77984;SDS011;67177;47.240;-1.546;2023-03-16T13:20:34;2.70;;;0.80;;
77984;SDS011;67177;47.240;-1.546;2023-03-16T13:28:29;2.65;;;0.70;;
77984;SDS011;67177;47.240;-1.546;2023-03-16T13:31:03;2.58;;;0.73;;
77984;SDS011;67177;47.240;-1.546;2023-03-16T13:33:50;2.88;;;0.70;;
77984;SDS011;67177;47.240;-1.546;2023-03-16T13:36:20;3.00;;;0.80;;
77984;SDS011;67177;47.240;-1.546;2023-03-16T13:38:54;3.37;;;0.90;;
77984;SDS011;67177;47.240;-1.546;2023-03-16T13:41:28;2.90;;;0.77;;
77984;SDS011;67177;47.240;-1.546;2023-03-16T13:43:54;3.58;;;0.98;;
77984;SDS011;67177;47.240;-1.546;2023-03-16T13:46:20;3.08;;;0.80;;
77984;SDS011;67177;47.240;-1.546;2023-03-16T13:48:51;3.03;;;0.70;;
77984;SDS011;67177;47.240;-1.546;2023-03-16T13:51:18;3.50;;;0.80;;
77984;SDS011;67177;47.240;-1.546;2023-03-16T13:53:46;2.85;;;0.70;;
77984;SDS011;67177;47.240;-1.546;2023-03-16T13:56:15;3.13;;;0.70;;
77984;SDS011;67177;47.240;-1.546;2023-03-16T13:58:44;3.57;;;0.90;;
77984;SDS011;67177;47.240;-1.546;2023-03-16T14:01:34;2.80;;;0.80;;
77984;SDS011;67177;47.240;-1.546;2023-03-16T14:04:00;2.45;;;0.70;;
77984;SDS011;67177;47.240;-1.546;2023-03-16T14:06:34;3.50;;;0.80;;
77984;SDS011;67177;47.240;-1.546;2023-03-16T14:09:01;3.05;;;0.80;;
77984;SDS011;67177;47.240;-1.546;2023-03-16T14:11:29;3.30;;;0.80;;
77984;SDS011;67177;47.240;-1.546;2023-03-16T14:13:56;3.28;;;0.93;;
77984;SDS011;67177;47.240;-1.546;2023-03-16T14:16:24;3.45;;;0.80;;
77984;SDS011;67177;47.240;-1.546;2023-03-16T14:21:27;3.40;;;0.80;;
77984;SDS011;67177;47.240;-1.546;2023-03-16T14:23:59;2.20;;;0.60;;
77984;SDS011;67177;47.240;-1.546;2023-03-16T14:26:37;2.22;;;0.60;;
77984;SDS011;67177;47.240;-1.546;2023-03-16T14:31:48;3.92;;;0.80;;
77984;SDS011;67177;47.240;-1.546;2023-03-16T14:34:27;3.17;;;0.73;;
77984;SDS011;67177;47.240;-1.546;2023-03-16T14:39:30;2.65;;;0.68;;
77984;SDS011;67177;47.240;-1.546;2023-03-16T14:41:55;3.00;;;0.80;;
77984;SDS011;67177;47.240;-1.546;2023-03-16T14:44:22;2.47;;;0.65;;
77984;SDS011;67177;47.240;-1.546;2023-03-16T14:46:52;2.78;;;0.70;;
77984;SDS011;67177;47.240;-1.546;2023-03-16T14:49:30;3.03;;;0.77;;
77984;SDS011;67177;47.240;-1.546;2023-03-16T14:52:00;3.78;;;0.80;;
77984;SDS011;67177;47.240;-1.546;2023-03-16T14:54:32;2.87;;;0.67;;
77984;SDS011;67177;47.240;-1.546;2023-03-16T14:56:59;4.35;;;0.73;;
77984;SDS011;67177;47.240;-1.546;2023-03-16T14:59:28;3.22;;;0.90;;
77984;SDS011;67177;47.240;-1.546;2023-03-16T15:01:53;3.67;;;0.90;;
77984;SDS011;67177;47.240;-1.546;2023-03-16T15:04:24;3.27;;;0.80;;
77984;SDS011;67177;47.240;-1.546;2023-03-16T15:06:53;3.90;;;0.80;;
77984;SDS011;67177;47.240;-1.546;2023-03-16T15:11:59;3.50;;;0.82;;
77984;SDS011;67177;47.240;-1.546;2023-03-16T15:14:25;3.77;;;0.90;;
77984;SDS011;67177;47.240;-1.546;2023-03-16T15:17:09;3.88;;;1.05;;
77984;SDS011;67177;47.240;-1.546;2023-03-16T15:19:35;2.75;;;0.70;;
77984;SDS011;67177;47.240;-1.546;2023-03-16T15:22:01;3.50;;;0.77;;
77984;SDS011;67177;47.240;-1.546;2023-03-16T15:24:28;3.15;;;0.80;;
77984;SDS011;67177;47.240;-1.546;2023-03-16T15:26:56;3.30;;;0.70;;
77984;SDS011;67177;47.240;-1.546;2023-03-16T15:29:21;3.17;;;0.87;;
77984;SDS011;67177;47.240;-1.546;2023-03-16T15:31:47;3.53;;;0.70;;
77984;SDS011;67177;47.240;-1.546;2023-03-16T15:34:13;3.07;;;0.83;;
77984;SDS011;67177;47.240;-1.546;2023-03-16T15:36:38;3.28;;;0.70;;
77984;SDS011;67177;47.240;-1.546;2023-03-16T15:39:05;2.50;;;0.80;;
77984;SDS011;67177;47.240;-1.546;2023-03-16T15:41:32;3.33;;;0.90;;
77984;SDS011;67177;47.240;-1.546;2023-03-16T15:43:57;2.57;;;0.70;;
77984;SDS011;67177;47.240;-1.546;2023-03-16T15:46:25;3.25;;;0.90;;
77984;SDS011;67177;47.240;-1.546;2023-03-16T15:48:52;2.97;;;0.70;;
77984;SDS011;67177;47.240;-1.546;2023-03-16T15:51:24;2.92;;;0.70;;
77984;SDS011;67177;47.240;-1.546;2023-03-16T15:53:52;3.63;;;0.80;;
77984;SDS011;67177;47.240;-1.546;2023-03-16T15:56:23;2.30;;;0.70;;
77984;SDS011;67177;47.240;-1.546;2023-03-16T15:58:53;2.97;;;0.70;;
77984;SDS011;67177;47.240;-1.546;2023-03-16T16:01:25;3.65;;;0.70;;